Time;durP1;ratioP1;P1;durP2;ratioP2;P2;SDS_P1;SDS_P2;PMS_P1;PMS_P2;Temp;Humidity;BMP_temperature;BMP_pressure;BME280_temperature;BME280_humidity;BME280_pressure;Samples;Min_cycle;Max_cycle;Signal;HPM_P1;HPM_P2
2021/05/27 05:40:38;;;;;;;5.33;4.17;;;;;;;15.02;74.01;97989.62;1846502;76;22242;-71
2021/05/27 05:43:05;;;;;;;5.92;3.65;;;;;;;15.10;73.51;97987.23;1817088;79;21433;-68
2021/05/27 05:45:34;;;;;;;12.60;3.72;;;;;;;15.17;73.42;97982.91;1817042;79;22083;-67
2021/05/27 05:48:01;;;;;;;4.85;3.05;;;;;;;15.26;73.41;97978.30;1817627;79;20993;-69
2021/05/27 05:53:20;;;;;;;6.45;3.80;;;;;;;15.55;72.89;97982.47;1817892;79;20886;-73
2021/05/27 05:55:49;;;;;;;7.17;3.80;;;;;;;15.71;72.47;97984.88;1818192;79;20882;-71
2021/05/27 05:58:16;;;;;;;4.97;3.60;;;;;;;15.84;71.85;97983.64;1818430;79;21091;-70
2021/05/27 06:00:48;;;;;;;7.62;3.85;;;;;;;15.92;71.65;97979.55;1818055;79;21503;-66
2021/05/27 06:03:13;;;;;;;10.20;3.70;;;;;;;16.06;71.05;97982.81;1817729;78;21542;-67
2021/05/27 06:05:58;;;;;;;;;;;;;;;16.16;71.00;97984.35;1820810;78;20902;-68
2021/05/27 06:08:45;;;;;;;7.17;3.75;;;;;;;16.28;70.54;97975.79;1818443;79;20129;-63
2021/05/27 06:11:12;;;;;;;5.17;4.22;;;;;;;16.38;70.16;97976.77;1818402;79;21411;-63
2021/05/27 06:13:39;;;;;;;5.70;3.75;;;;;;;16.43;69.41;97979.84;1817969;79;20997;-69
2021/05/27 06:16:08;;;;;;;7.15;4.30;;;;;;;16.41;69.35;97982.88;1817984;78;21455;-73
2021/05/27 06:18:35;;;;;;;6.45;4.22;;;;;;;16.39;69.40;97981.04;1817936;79;20882;-64
2021/05/27 06:21:10;;;;;;;6.70;4.22;;;;;;;16.43;69.33;97988.75;1803228;79;21104;-64
2021/05/27 06:23:38;;;;;;;4.95;4.42;;;;;;;16.48;69.50;97988.31;1803914;79;20971;-70
2021/05/27 06:26:06;;;;;;;8.38;4.62;;;;;;;16.55;69.17;97987.27;1794425;77;21447;-66
2021/05/27 06:28:33;;;;;;;8.43;4.30;;;;;;;16.62;68.69;97982.13;1735733;81;21069;-71
2021/05/27 06:31:04;;;;;;;10.10;4.55;;;;;;;16.69;68.40;97967.52;1733312;82;21530;-70
2021/05/27 06:33:32;;;;;;;8.13;4.22;;;;;;;16.78;68.02;97976.34;1732793;82;20989;-66
2021/05/27 06:36:00;;;;;;;5.28;3.87;;;;;;;16.86;67.61;97964.09;1732882;82;21038;-68
2021/05/27 06:38:28;;;;;;;7.40;3.70;;;;;;;16.98;66.75;97970.15;1734155;81;20885;-67
2021/05/27 06:40:55;;;;;;;5.80;3.80;;;;;;;17.07;64.51;97977.62;1731918;82;21668;-68
2021/05/27 06:43:23;;;;;;;10.00;3.50;;;;;;;17.09;63.54;97970.76;1785358;80;21602;-67
2021/05/27 06:45:52;;;;;;;4.37;3.27;;;;;;;17.12;62.25;97968.50;1785411;80;21491;-70
2021/05/27 06:48:20;;;;;;;4.58;3.47;;;;;;;17.14;62.21;97968.95;1785577;80;21152;-66
2021/05/27 06:50:50;;;;;;;4.95;3.42;;;;;;;17.16;62.46;97970.21;1786851;79;20993;-73
2021/05/27 06:53:19;;;;;;;4.85;3.02;;;;;;;17.21;62.50;97965.15;1791175;79;21100;-68
2021/05/27 06:55:49;;;;;;;4.90;3.25;;;;;;;17.25;60.68;97964.14;1790924;77;21085;-69
2021/05/27 06:58:17;;;;;;;5.90;3.80;;;;;;;17.30;60.86;97962.59;1812300;77;21072;-74
2021/05/27 07:00:59;;;;;;;10.70;3.83;;;;;;;17.37;61.20;97964.19;1817076;79;21152;-72
2021/05/27 07:03:26;;;;;;;6.45;3.60;;;;;;;17.46;61.63;97965.44;1814599;79;20952;-70
2021/05/27 07:05:53;;;;;;;6.60;3.40;;;;;;;17.54;61.63;97957.27;1814363;79;21095;-69
2021/05/27 07:08:20;;;;;;;5.45;3.22;;;;;;;17.61;61.70;97952.65;1808752;79;21152;-67
2021/05/27 07:10:48;;;;;;;4.42;2.87;;;;;;;17.70;61.50;97958.19;1813864;77;21718;-69
2021/05/27 07:13:16;;;;;;;5.33;2.72;;;;;;;17.83;58.90;97955.50;1813602;77;21078;-68
2021/05/27 07:15:42;;;;;;;6.20;2.50;;;;;;;17.91;58.96;97964.06;1811795;79;21105;-68
2021/05/27 07:18:10;;;;;;;5.12;2.20;;;;;;;18.04;57.29;97958.89;1812260;79;20950;-68
2021/05/27 07:20:38;;;;;;;6.08;2.40;;;;;;;18.16;55.85;97950.76;1773764;80;21468;-63
2021/05/27 07:23:07;;;;;;;2.45;1.90;;;;;;;18.28;54.68;97953.43;1748259;81;21503;-68
2021/05/27 07:25:34;;;;;;;4.25;2.17;;;;;;;18.39;53.27;97953.98;1785034;80;21053;-69
2021/05/27 07:28:01;;;;;;;2.50;1.65;;;;;;;18.43;52.54;97950.83;1789600;79;21071;-63
2021/05/27 07:30:30;;;;;;;4.42;1.65;;;;;;;18.50;49.70;97958.41;1808756;79;20835;-67
2021/05/27 07:32:58;;;;;;;3.15;1.67;;;;;;;18.53;47.23;97955.02;1816991;79;20986;-67
2021/05/27 07:35:26;;;;;;;3.22;1.50;;;;;;;18.58;47.76;97952.64;1809284;79;21515;-66
2021/05/27 07:37:54;;;;;;;2.52;1.70;;;;;;;18.60;48.35;97950.37;1804997;79;21672;-71
2021/05/27 07:40:24;;;;;;;3.85;1.90;;;;;;;18.70;49.68;97948.55;1795072;79;21050;-68
2021/05/27 07:42:52;;;;;;;2.08;1.45;;;;;;;18.85;49.10;97952.66;1797590;79;21116;-68
2021/05/27 07:45:20;;;;;;;7.50;2.20;;;;;;;18.99;47.96;97946.84;1813838;78;21138;-65
2021/05/27 07:47:47;;;;;;;12.70;2.08;;;;;;;19.05;47.65;97944.12;1809044;77;21083;-66
2021/05/27 07:50:35;;;;;;;2.15;1.42;;;;;;;19.07;46.66;97943.99;1819493;78;21475;-65
2021/05/27 07:53:05;;;;;;;1.82;1.12;;;;;;;19.07;46.01;97940.48;1679826;84;21028;-63
2021/05/27 07:55:42;;;;;;;3.65;1.15;;;;;;;19.08;43.83;97944.76;1722198;82;21035;-67
2021/05/27 07:58:09;;;;;;;2.25;1.15;;;;;;;19.09;43.46;97944.43;1730959;82;21179;-68
2021/05/27 08:00:40;;;;;;;7.60;1.30;;;;;;;19.10;42.70;97943.28;1730513;82;21012;-68
2021/05/27 08:03:07;;;;;;;2.40;1.37;;;;;;;19.12;43.46;97943.72;1704790;82;21944;-66
2021/05/27 08:05:35;;;;;;;3.05;1.12;;;;;;;19.25;43.79;97942.30;1712149;82;21048;-64
2021/05/27 08:08:03;;;;;;;2.92;1.00;;;;;;;19.34;42.31;97947.80;1717590;83;21510;-66
2021/05/27 08:10:32;;;;;;;2.20;1.00;;;;;;;19.42;41.10;97937.95;1718701;83;21591;-64
2021/05/27 08:13:01;;;;;;;3.20;1.20;;;;;;;19.47;40.90;97937.70;1731325;82;21080;-65
2021/05/27 08:15:29;;;;;;;1.62;1.17;;;;;;;19.50;39.24;97944.56;1724347;83;21746;-65
2021/05/27 08:17:56;;;;;;;1.37;0.88;;;;;;;19.53;39.47;97940.36;1751126;82;20904;-61
2021/05/27 08:20:23;;;;;;;1.95;1.25;;;;;;;19.52;39.63;97931.45;1750919;82;20997;-61
2021/05/27 08:22:50;;;;;;;8.28;1.10;;;;;;;19.60;40.52;97942.69;1751116;82;21526;-69
2021/05/27 08:25:18;;;;;;;3.33;1.05;;;;;;;19.74;40.69;97938.17;1750864;82;21038;-66
2021/05/27 08:27:44;;;;;;;5.97;1.20;;;;;;;19.87;40.23;97934.25;1751467;82;21155;-65
2021/05/27 08:30:13;;;;;;;9.83;1.80;;;;;;;19.93;40.02;97935.55;1751300;82;20975;-66
2021/05/27 08:32:41;;;;;;;3.83;1.30;;;;;;;19.98;40.72;97928.48;1744293;81;20973;-70
2021/05/27 08:35:11;;;;;;;1.40;0.90;;;;;;;20.10;39.79;97940.62;1740517;82;21542;-69
2021/05/27 08:37:38;;;;;;;5.25;1.42;;;;;;;20.18;39.62;97936.94;1715810;82;21579;-66
2021/05/27 08:40:08;;;;;;;3.67;1.05;;;;;;;20.23;38.33;97931.83;1739756;82;21141;-67
2021/05/27 08:42:36;;;;;;;5.72;1.12;;;;;;;20.27;38.72;97926.68;1749005;82;20896;-66
2021/05/27 08:45:08;;;;;;;2.05;1.02;;;;;;;20.31;37.09;97935.70;1751141;82;20999;-68
2021/05/27 08:47:36;;;;;;;1.02;0.90;;;;;;;20.30;36.49;97923.23;1751330;82;21544;-67
2021/05/27 08:50:05;;;;;;;4.80;1.20;;;;;;;20.32;38.58;97931.05;1750675;81;21095;-66
2021/05/27 08:52:32;;;;;;;4.65;1.65;;;;;;;20.46;38.63;97924.56;1744182;82;21105;-68
2021/05/27 08:54:59;;;;;;;2.40;1.02;;;;;;;20.61;38.99;97921.58;1743355;82;21463;-69
2021/05/27 08:57:26;;;;;;;2.55;0.93;;;;;;;20.74;39.00;97921.64;1743162;82;21057;-68
2021/05/27 08:59:54;;;;;;;3.15;1.17;;;;;;;20.84;38.25;97930.61;1724736;82;21439;-66
2021/05/27 09:02:22;;;;;;;3.42;1.22;;;;;;;20.91;39.26;97928.03;1720558;83;21001;-65
2021/05/27 09:04:50;;;;;;;6.35;1.60;;;;;;;21.03;38.50;97929.24;1720671;83;21553;-67
2021/05/27 09:07:17;;;;;;;2.62;1.40;;;;;;;21.13;37.53;97922.66;1720352;83;20964;-64
2021/05/27 09:09:57;;;;;;;3.52;1.35;;;;;;;21.17;38.01;97920.02;1719374;83;21123;-70
2021/05/27 09:12:32;;;;;;;1.35;1.10;;;;;;;21.25;38.52;97925.79;1742957;80;20999;-68
2021/05/27 09:15:03;;;;;;;3.60;1.07;;;;;;;21.39;37.07;97921.96;1729375;82;20928;-67
2021/05/27 09:17:44;;;;;;;1.62;0.90;;;;;;;21.37;35.34;97926.98;1720585;83;21685;-65
2021/05/27 09:20:20;;;;;;;23.73;1.72;;;;;;;21.30;36.37;97922.77;1720543;83;20989;-73
2021/05/27 09:22:50;;;;;;;3.40;1.07;;;;;;;21.35;36.00;97920.33;1736459;82;21569;-70
2021/05/27 09:25:28;;;;;;;1.85;1.00;;;;;;;21.40;34.70;97920.83;1767001;80;21581;-69
2021/05/27 09:27:55;;;;;;;1.20;0.82;;;;;;;21.47;35.53;97916.86;1790103;80;21037;-63
2021/05/27 09:30:23;;;;;;;0.80;0.80;;;;;;;21.58;34.44;97912.95;1788611;80;21135;-67
2021/05/27 09:32:51;;;;;;;1.52;0.70;;;;;;;21.56;32.76;97913.89;1788366;80;21610;-67
2021/05/27 09:35:19;;;;;;;3.52;0.82;;;;;;;21.53;33.14;97919.48;1788527;80;21267;-74
2021/05/27 09:37:51;;;;;;;2.05;0.75;;;;;;;21.61;34.29;97918.47;1742695;80;21582;-68
2021/05/27 09:40:42;;;;;;;3.25;0.85;;;;;;;21.74;33.49;97920.41;1719491;83;20993;-70
2021/05/27 09:43:12;;;;;;;2.20;1.00;;;;;;;21.80;32.63;97918.41;1720410;83;21015;-65
2021/05/27 09:45:41;;;;;;;5.42;1.15;;;;;;;21.78;31.79;97915.27;1720570;82;21001;-70
2021/05/27 09:48:24;;;;;;;2.70;1.10;;;;;;;21.75;32.80;97924.16;1710295;82;21067;-69
2021/05/27 09:50:56;;;;;;;5.50;1.17;;;;;;;21.83;32.85;97918.82;1710086;84;20986;-70
2021/05/27 09:53:27;;;;;;;1.62;0.80;;;;;;;21.88;31.80;97921.28;1709654;83;21111;-71
2021/05/27 09:55:56;;;;;;;2.45;0.93;;;;;;;21.81;32.25;97915.08;1709670;84;20944;-67
2021/05/27 09:58:24;;;;;;;4.67;1.15;;;;;;;21.83;31.38;97920.37;1709723;84;21520;-68
2021/05/27 10:00:52;;;;;;;2.22;1.00;;;;;;;21.92;31.82;97913.93;1705652;83;21566;-71
2021/05/27 10:03:36;;;;;;;5.37;0.98;;;;;;;22.01;31.31;97915.82;1691830;84;21112;-67
2021/05/27 10:06:10;;;;;;;2.50;0.85;;;;;;;22.05;30.67;97920.75;1719906;83;21087;-66
2021/05/27 10:08:49;;;;;;;;;;;;;;;21.97;31.73;97919.08;1728039;83;21067;-67
2021/05/27 10:11:17;;;;;;;3.42;1.12;;;;;;;21.98;31.74;97915.98;1720024;83;20257;-68
2021/05/27 10:13:47;;;;;;;1.70;0.70;;;;;;;22.03;32.18;97912.14;1743185;81;20939;-70
2021/05/27 10:16:18;;;;;;;4.17;1.00;;;;;;;22.14;31.05;97915.84;1757108;81;21631;-67
2021/05/27 10:18:47;;;;;;;4.95;1.40;;;;;;;22.19;31.44;97916.87;1749515;81;21120;-67
2021/05/27 10:21:14;;;;;;;5.97;1.32;;;;;;;22.20;32.64;97917.09;1725481;81;21618;-67
2021/05/27 10:23:42;;;;;;;7.22;1.17;;;;;;;22.20;31.32;97929.36;1754159;81;21151;-63
2021/05/27 10:26:09;;;;;;;2.67;0.93;;;;;;;22.15;31.27;97928.31;1734524;81;21095;-68
2021/05/27 10:28:38;;;;;;;1.98;0.90;;;;;;;22.06;31.33;97922.33;1719001;83;21878;-66
2021/05/27 10:31:06;;;;;;;1.62;0.75;;;;;;;22.03;31.80;97916.23;1719485;83;21184;-70
2021/05/27 10:33:39;;;;;;;2.47;1.02;;;;;;;22.06;31.59;97911.42;1725889;83;21077;-68
2021/05/27 10:36:07;;;;;;;1.30;0.90;;;;;;;22.14;32.36;97911.75;1720540;83;21009;-64
2021/05/27 10:38:47;;;;;;;5.47;1.45;;;;;;;22.24;32.43;97904.28;1720869;81;20910;-71
2021/05/27 10:41:24;;;;;;;1.55;1.02;;;;;;;22.31;32.24;97908.47;1717851;83;21492;-69
2021/05/27 10:44:07;;;;;;;2.25;0.90;;;;;;;22.40;31.46;97915.80;1713506;83;21124;-69
2021/05/27 10:46:49;;;;;;;1.72;0.85;;;;;;;22.47;31.52;97903.05;1716739;83;21095;-70
2021/05/27 10:49:44;;;;;;;1.80;0.90;;;;;;;22.54;30.61;97903.72;1738071;81;21108;-71
2021/05/27 10:52:33;;;;;;;3.65;1.00;;;;;;;22.57;31.03;97898.89;1727922;82;20977;-70
2021/05/27 10:55:00;;;;;;;8.88;1.12;;;;;;;22.64;31.10;97907.20;1721249;82;21068;-70
2021/05/27 10:57:46;;;;;;;3.22;1.10;;;;;;;22.70;29.48;97895.38;1734084;82;22221;-65
2021/05/27 11:00:37;;;;;;;3.62;0.72;;;;;;;22.59;29.97;97899.30;1748012;81;21499;-69
2021/05/27 11:03:42;;;;;;;5.17;0.90;;;;;;;22.45;29.96;97897.75;1737934;81;21015;-67
2021/05/27 11:06:40;;;;;;;7.35;0.93;;;;;;;22.39;29.87;97902.77;1730381;81;21002;-68
2021/05/27 11:09:23;;;;;;;1.47;0.80;;;;;;;22.42;30.76;97898.52;1758852;81;21629;-72
2021/05/27 11:11:58;;;;;;;3.15;0.75;;;;;;;22.53;31.00;97895.33;1758741;81;21599;-68
2021/05/27 11:14:37;;;;;;;1.27;0.70;;;;;;;22.64;30.42;97892.19;1758938;81;21093;-66
2021/05/27 11:17:14;;;;;;;5.05;1.10;;;;;;;22.75;29.73;97894.45;1758925;81;20923;-70
2021/05/27 11:20:06;;;;;;;4.25;1.00;;;;;;;22.83;28.82;97902.95;1758837;81;21596;-68
2021/05/27 11:23:00;;;;;;;0.90;0.72;;;;;;;22.95;30.01;97890.42;1758828;81;21603;-69
2021/05/27 11:25:30;;;;;;;3.65;0.80;;;;;;;23.19;28.63;97891.84;1757275;81;21128;-72
2021/05/27 11:28:11;;;;;;;1.25;0.80;;;;;;;23.25;28.47;97889.58;1758862;81;21070;-71
2021/05/27 11:30:44;;;;;;;1.15;0.85;;;;;;;23.31;29.17;97892.16;1754203;81;21520;-72
2021/05/27 11:33:26;;;;;;;1.55;0.90;;;;;;;23.44;29.12;97882.54;1724157;82;21545;-71
2021/05/27 11:35:54;;;;;;;2.65;0.80;;;;;;;23.62;29.11;97876.06;1731402;82;21670;-73
2021/05/27 11:38:32;;;;;;;1.22;0.90;;;;;;;23.89;29.22;97873.94;1733345;82;21041;-71
2021/05/27 11:41:10;;;;;;;2.67;1.10;;;;;;;24.14;28.74;97865.34;1733903;82;21271;-72
2021/05/27 11:43:44;;;;;;;2.17;0.80;;;;;;;24.40;28.63;97864.33;1778479;79;21587;-70
2021/05/27 11:46:20;;;;;;;1.30;0.88;;;;;;;24.54;27.78;97871.25;1788760;80;21000;-71
2021/05/27 11:51:20;;;;;;;5.22;0.90;;;;;;;24.55;26.57;97865.16;1772989;79;21088;-69
2021/05/27 11:54:09;;;;;;;4.80;0.90;;;;;;;24.67;26.87;97860.14;1790852;80;22007;-72
2021/05/27 11:56:46;;;;;;;1.77;0.80;;;;;;;24.84;27.11;97858.66;1760194;80;21470;-72
2021/05/27 11:59:26;;;;;;;2.05;0.80;;;;;;;25.11;25.94;97861.27;1769519;80;21539;-71
2021/05/27 12:01:58;;;;;;;1.85;0.80;;;;;;;25.21;26.58;97856.40;1765777;80;20909;-72
2021/05/27 12:04:32;;;;;;;1.90;1.00;;;;;;;25.26;26.47;97847.80;1758728;81;21140;-72
2021/05/27 12:07:12;;;;;;;1.20;0.57;;;;;;;25.47;27.98;97842.95;1759420;81;21481;-67
2021/05/27 12:09:45;;;;;;;2.55;0.90;;;;;;;25.56;25.66;97846.87;1759409;80;20913;-66
2021/05/27 12:12:29;;;;;;;2.33;0.90;;;;;;;25.63;26.26;97837.27;1742144;80;20929;-70
2021/05/27 12:15:03;;;;;;;1.65;0.80;;;;;;;25.99;25.60;97844.09;1790718;80;21498;-71
2021/05/27 12:17:37;;;;;;;1.98;0.70;;;;;;;25.99;25.60;97844.09;1791173;80;21021;-71
2021/05/27 12:20:18;;;;;;;1.20;0.60;;;;;;;26.05;25.90;97842.53;1790740;80;21495;-68
2021/05/27 12:23:03;;;;;;;1.52;0.80;;;;;;;26.10;24.93;97847.59;1765453;80;20984;-72
2021/05/27 12:25:37;;;;;;;2.50;0.60;;;;;;;26.14;24.08;97839.60;1786960;80;21100;-70
2021/05/27 12:28:17;;;;;;;2.27;0.72;;;;;;;26.14;24.08;97839.60;1788923;79;21555;-73
2021/05/27 12:30:55;;;;;;;1.85;0.75;;;;;;;26.14;25.19;97840.18;1771000;80;21098;-72
2021/05/27 12:33:28;;;;;;;1.37;0.60;;;;;;;26.32;23.92;97837.58;1790979;79;21045;-72
2021/05/27 12:35:57;;;;;;;0.90;0.50;;;;;;;26.40;23.14;97843.23;1791171;80;20934;-74
2021/05/27 12:38:29;;;;;;;3.35;0.70;;;;;;;26.37;23.11;97843.25;1790907;80;20930;-72
2021/05/27 12:41:06;;;;;;;1.32;0.80;;;;;;;26.39;23.73;97851.87;1790758;80;21523;-71
2021/05/27 12:43:51;;;;;;;3.50;0.80;;;;;;;26.45;23.93;97838.70;1796086;77;21546;-70
2021/05/27 12:46:32;;;;;;;;;;;;;;;26.56;23.96;97835.14;1793786;80;21091;-74
2021/05/27 12:49:03;;;;;;;3.55;0.80;;;;;;;26.80;24.13;97840.56;1790940;80;20151;-72
2021/05/27 12:51:40;;;;;;;0.93;0.60;;;;;;;27.07;23.84;97831.95;1777145;79;20957;-72
2021/05/27 12:54:14;;;;;;;1.65;0.60;;;;;;;27.38;23.64;97828.83;1822075;78;21065;-76
2021/05/27 12:56:50;;;;;;;;;;;;;;;27.62;22.79;97825.70;1823614;77;20977;-66
2021/05/27 12:59:23;;;;;;;0.90;0.62;;;;;;;27.75;21.94;97819.87;1814204;78;21755;-75
2021/05/27 13:01:50;;;;;;;0.90;0.55;;;;;;;27.76;22.12;97822.23;1827829;78;21039;-73
2021/05/27 13:04:25;;;;;;;3.40;0.85;;;;;;;27.88;22.51;97825.06;1811457;77;21065;-71
2021/05/27 13:06:54;;;;;;;3.42;0.70;;;;;;;28.08;21.76;97830.19;1820716;78;21199;-71
2021/05/27 13:09:21;;;;;;;1.85;0.70;;;;;;;28.10;21.87;97825.67;1820268;78;21576;-72
2021/05/27 13:12:02;;;;;;;3.12;0.65;;;;;;;27.99;21.47;97824.95;1819913;78;21511;-72
2021/05/27 13:14:31;;;;;;;1.35;0.62;;;;;;;27.88;21.25;97816.81;1807226;78;21146;-68
2021/05/27 13:17:12;;;;;;;1.40;0.57;;;;;;;27.87;21.15;97815.23;1816372;77;21496;-70
2021/05/27 13:19:45;;;;;;;1.35;0.60;;;;;;;27.69;22.16;97818.75;1800788;78;21499;-69
2021/05/27 13:22:29;;;;;;;2.50;0.70;;;;;;;27.64;21.74;97814.47;1815912;79;21175;-68
2021/05/27 13:25:09;;;;;;;1.65;0.70;;;;;;;27.68;21.62;97814.42;1816077;79;21546;-69
2021/05/27 13:27:49;;;;;;;2.77;0.65;;;;;;;27.58;21.22;97809.83;1817790;77;21037;-67
2021/05/27 13:30:31;;;;;;;1.52;0.65;;;;;;;27.62;20.74;97807.81;1816442;77;21025;-69
2021/05/27 13:33:11;;;;;;;1.10;0.55;;;;;;;27.60;21.50;97804.69;1820219;78;21444;-71
2021/05/27 13:35:39;;;;;;;1.95;0.70;;;;;;;27.73;21.46;97809.86;1797128;79;20905;-68
2021/05/27 13:38:07;;;;;;;2.52;0.68;;;;;;;27.87;21.55;97802.84;1823095;77;21582;-70
2021/05/27 13:40:39;;;;;;;3.20;0.82;;;;;;;28.06;21.88;97806.42;1784322;79;20969;-68
2021/05/27 13:43:08;;;;;;;7.83;0.80;;;;;;;28.41;21.28;97806.61;1782590;79;21062;-70
2021/05/27 13:45:35;;;;;;;1.70;0.70;;;;;;;28.58;21.40;97802.86;1796233;79;21249;-71
2021/05/27 13:48:06;;;;;;;1.02;0.60;;;;;;;28.65;21.34;97799.27;1797166;79;21574;-70
2021/05/27 13:50:34;;;;;;;2.33;0.75;;;;;;;28.76;21.85;97799.92;1797250;79;21366;-69
2021/05/27 13:53:08;;;;;;;1.50;0.60;;;;;;;28.92;21.55;97795.95;1796975;79;21129;-70
2021/05/27 13:55:44;;;;;;;3.00;0.73;;;;;;;28.81;21.00;97796.08;1798733;79;20941;-68
2021/05/27 13:58:07;;;;;;;6.20;0.70;;;;;;;28.81;22.14;97797.46;1798281;79;21570;-69
2021/05/27 14:00:34;;;;;;;2.17;0.80;;;;;;;28.92;21.64;97798.70;1798846;79;20962;-69
2021/05/27 14:03:03;;;;;;;1.65;0.72;;;;;;;28.81;21.65;97796.67;1798340;79;21082;-69
2021/05/27 14:05:32;;;;;;;1.95;0.70;;;;;;;28.81;22.09;97798.05;1781531;79;20906;-69
2021/05/27 14:07:59;;;;;;;1.75;0.90;;;;;;;28.89;22.01;97794.80;1798625;79;20970;-69
